Impacts METAR Board
IDs:

KELA - Eagle Lake Arpt, TX, US

Updated at: 0300 UTC 06 Dec 2019
Potential Impact None Slight Moderate High
Time 05/15Z 05/16Z 05/17Z 05/18Z 05/19Z 05/20Z 05/21Z 05/22Z 05/23Z 06/00Z 06/01Z 06/02Z 06/03Z
Temp64 69 73 74 74 76 76 76 74 71 68 67 66
Dewpt58 60 63 63 63 63 62 62 63 63 63 63 63
Altim30.07 30.08 30.07 30.05 30.02 29.98 29.97 29.96 29.96 29.97 29.98 29.99 30.00
VIS10 10 10 10 10 10 10 10 10 10 10 10 10
CIG26 28 -- 27 28 33 35 -- -- -- -- -- --
CoverOVCBKNSCTBKNBKNBKNBKNSCTCLRCLRCLRCLRCLR
FltCatMVFRMVFRVFRMVFRMVFRVFRVFRVFRVFRVFRVFRVFRVFR
WX--------------------------
WDir130150170200190180170180170170160160150
WSpd8 8 8 9 5 10 7 6 9 6 5 7 4
WGst-- -- -- -- -- -- -- -- -- -- -- -- --
Raw hourly METARs
KELA 051455Z AUTO 13008KT 10SM OVC026 18/14 A3007 RMK AO2 T01760144
KELA 051555Z AUTO 15008KT 10SM BKN028 20/16 A3008 RMK AO2 T02030156
KELA 051655Z AUTO 17008KT 10SM SCT025 23/17 A3007 RMK AO2 T02300170
KELA 051755Z AUTO 20009KT 10SM BKN027 BKN031 23/17 A3005 RMK AO2 T02340172 10247 20103
KELA 051855Z AUTO 19005KT 10SM BKN028 BKN037 24/17 A3002 RMK AO2 T02360172
KELA 051955Z AUTO 18010KT 10SM BKN033 BKN039 25/17 A2998 RMK AO2 T02450170
KELA 052055Z AUTO 17007KT 150V210 10SM BKN035 25/17 A2997 RMK AO2 T02460165
KELA 052155Z AUTO 18006KT 10SM SCT035 24/17 A2996 RMK AO2 T02440166
KELA 052255Z AUTO 17009KT 10SM CLR 24/17 A2996 RMK AO2 T02360170
KELA 052355Z AUTO 17006KT 10SM CLR 22/17 A2997 RMK AO2 T02150170 10261 20215
KELA 060055Z AUTO 16005KT 10SM CLR 20/17 A2998 RMK AO2 T01980170
KELA 060155Z AUTO 16007KT 10SM CLR 20/17 A2999 RMK AO2 T01950173
KELA 060255Z AUTO 15004KT 10SM CLR 19/17 A3000 RMK AO2 T01870171